Time;durP1;ratioP1;P1;durP2;ratioP2;P2;SDS_P1;SDS_P2;PMS_P1;PMS_P2;Temp;Humidity;BMP_temperature;BMP_pressure;BME280_temperature;BME280_humidity;BME280_pressure;Samples;Min_cycle;Max_cycle;Signal;HPM_P1;HPM_P2
2023/04/11 00:02:13;;;;;;;4.53;1.30;;;9.50;99.90;;;;;;4954785;28;20035;-55
2023/04/11 00:04:39;;;;;;;7.27;2.07;;;9.50;99.90;;;;;;4954607;28;20028;-56
2023/04/11 00:07:06;;;;;;;8.03;1.60;;;9.50;99.90;;;;;;4954581;28;20393;-51
2023/04/11 00:09:32;;;;;;;6.40;1.50;;;9.50;99.90;;;;;;4954570;28;20046;-54
2023/04/11 00:11:58;;;;;;;8.67;1.30;;;9.60;99.90;;;;;;4955030;28;20031;-53
2023/04/11 00:14:27;;;;;;;3.93;1.10;;;9.60;99.90;;;;;;4954441;28;20039;-56
2023/04/11 00:16:53;;;;;;;4.85;1.20;;;9.60;99.90;;;;;;4954368;28;20038;-52
2023/04/11 00:19:24;;;;;;;5.17;1.27;;;9.60;99.90;;;;;;4954353;28;20503;-51
2023/04/11 00:21:50;;;;;;;5.43;1.47;;;9.70;99.90;;;;;;4954516;28;20561;-49
2023/04/11 00:24:17;;;;;;;5.07;1.20;;;9.60;99.90;;;;;;4954064;28;20039;-54
2023/04/11 00:26:42;;;;;;;8.27;1.60;;;9.60;99.90;;;;;;4954383;28;20039;-54
2023/04/11 00:29:08;;;;;;;6.27;1.57;;;9.70;99.90;;;;;;4969054;28;20079;-52
2023/04/11 00:31:34;;;;;;;5.43;1.40;;;9.70;99.90;;;;;;4954507;28;20398;-54
2023/04/11 00:34:00;;;;;;;5.20;1.40;;;9.80;99.90;;;;;;4952666;28;20031;-54
2023/04/11 00:36:26;;;;;;;5.70;1.60;;;9.70;99.90;;;;;;4954007;28;20039;-54
2023/04/11 00:38:53;;;;;;;10.93;2.70;;;9.70;99.90;;;;;;4953753;28;20023;-55
2023/04/11 00:41:19;;;;;;;8.43;2.17;;;9.70;99.90;;;;;;4954161;28;20078;-56
2023/04/11 00:43:46;;;;;;;12.87;2.90;;;9.80;99.90;;;;;;4953832;28;20031;-52
2023/04/11 00:46:12;;;;;;;10.77;2.70;;;9.80;99.90;;;;;;4954365;28;20294;-53
2023/04/11 00:48:38;;;;;;;9.27;3.00;;;9.90;99.90;;;;;;4968431;28;20040;-55
2023/04/11 00:51:04;;;;;;;13.33;3.73;;;9.90;99.90;;;;;;4952566;28;20053;-57
2023/04/11 00:53:31;;;;;;;11.47;2.57;;;10.00;99.90;;;;;;4953604;28;20039;-55
2023/04/11 00:55:58;;;;;;;10.60;2.60;;;10.00;99.90;;;;;;4968661;28;20038;-55
2023/04/11 00:58:25;;;;;;;7.57;2.53;;;9.90;99.90;;;;;;4953553;28;20406;-56
2023/04/11 01:00:51;;;;;;;11.37;2.33;;;9.90;99.90;;;;;;4952415;29;20094;-55
2023/04/11 01:03:17;;;;;;;13.57;3.00;;;9.90;99.90;;;;;;4953502;28;20107;-55
2023/04/11 01:05:44;;;;;;;10.47;2.50;;;9.80;99.90;;;;;;4953501;28;20510;-52
2023/04/11 01:08:10;;;;;;;9.17;2.67;;;9.80;99.90;;;;;;4953403;28;20540;-55
2023/04/11 01:10:37;;;;;;;16.07;2.90;;;9.80;99.90;;;;;;4953362;28;20086;-52
2023/04/11 01:13:03;;;;;;;10.50;2.80;;;9.80;99.90;;;;;;4953486;28;20031;-54
2023/04/11 01:15:29;;;;;;;13.53;2.67;;;9.80;99.90;;;;;;4952058;29;20039;-52
2023/04/11 01:17:56;;;;;;;15.07;2.93;;;9.80;99.90;;;;;;4953294;28;20062;-52
2023/04/11 01:20:23;;;;;;;13.07;2.90;;;9.90;99.90;;;;;;4998814;23;20037;-48
2023/04/11 01:22:49;;;;;;;15.20;3.43;;;9.80;99.90;;;;;;5046764;28;20300;-48
2023/04/11 01:25:17;;;;;;;19.63;3.47;;;9.80;99.90;;;;;;5029786;28;20359;-49
2023/04/11 01:27:43;;;;;;;15.93;3.20;;;9.90;99.90;;;;;;5046514;28;20393;-52
2023/04/11 01:30:11;;;;;;;19.87;3.90;;;9.90;99.90;;;;;;5031120;28;20367;-50
2023/04/11 01:32:37;;;;;;;20.30;3.40;;;9.90;99.90;;;;;;5029941;28;20228;-50
2023/04/11 01:35:04;;;;;;;20.43;3.20;;;9.90;99.90;;;;;;5031161;28;20025;-51
2023/04/11 01:37:29;;;;;;;18.17;3.30;;;9.90;99.90;;;;;;5029782;28;20060;-51
2023/04/11 01:39:55;;;;;;;15.83;3.43;;;9.90;99.90;;;;;;5029826;28;20075;-49
2023/04/11 01:42:22;;;;;;;15.03;3.30;;;9.80;99.90;;;;;;5031121;28;20042;-51
2023/04/11 01:44:49;;;;;;;15.63;3.00;;;9.80;99.90;;;;;;5029612;28;20128;-49
2023/04/11 01:47:15;;;;;;;17.00;3.27;;;9.80;99.90;;;;;;5029539;28;20034;-51
2023/04/11 01:49:42;;;;;;;14.17;3.20;;;9.80;99.90;;;;;;5030825;28;20086;-49
2023/04/11 01:52:08;;;;;;;21.00;3.63;;;9.70;99.90;;;;;;5029269;28;20067;-49
2023/04/11 01:54:33;;;;;;;17.97;3.10;;;9.70;99.90;;;;;;5030788;28;20060;-48
2023/04/11 01:57:00;;;;;;;18.57;3.60;;;9.60;99.90;;;;;;5029444;28;20067;-51
2023/04/11 01:59:26;;;;;;;20.50;3.50;;;9.60;99.90;;;;;;5029623;28;20036;-49
2023/04/11 02:01:52;;;;;;;14.57;3.40;;;9.70;99.90;;;;;;5029415;28;20026;-50
2023/04/11 02:04:18;;;;;;;16.17;4.37;;;9.70;99.90;;;;;;5030832;28;20036;-50
2023/04/11 02:06:44;;;;;;;20.80;3.43;;;9.60;99.90;;;;;;5030622;28;20030;-49
2023/04/11 02:09:10;;;;;;;23.43;3.53;;;9.70;99.90;;;;;;5030736;28;20089;-52
2023/04/11 02:11:36;;;;;;;16.87;3.07;;;9.70;99.90;;;;;;5029345;28;20069;-49
2023/04/11 02:14:02;;;;;;;18.53;3.77;;;9.60;99.90;;;;;;5030446;28;20033;-50
2023/04/11 02:16:29;;;;;;;21.67;3.53;;;9.60;99.90;;;;;;5029009;28;20029;-53
2023/04/11 02:18:55;;;;;;;19.73;3.67;;;9.70;99.90;;;;;;5030647;28;20029;-52
2023/04/11 02:21:21;;;;;;;19.63;3.53;;;9.60;99.90;;;;;;5030455;28;20486;-48
2023/04/11 02:23:47;;;;;;;20.90;3.47;;;9.60;99.90;;;;;;5029027;28;20033;-51
2023/04/11 02:26:13;;;;;;;16.67;3.57;;;9.60;99.90;;;;;;5030617;28;20075;-51
2023/04/11 02:28:39;;;;;;;27.23;3.97;;;9.60;99.90;;;;;;5028925;28;20112;-48
2023/04/11 02:31:05;;;;;;;22.63;4.37;;;9.50;99.90;;;;;;5029348;28;20068;-49
2023/04/11 02:33:31;;;;;;;21.27;3.90;;;9.40;99.90;;;;;;5029041;28;20037;-53
2023/04/11 02:35:57;;;;;;;21.20;3.80;;;9.40;99.90;;;;;;5013013;28;20064;-49
2023/04/11 02:38:23;;;;;;;20.37;3.73;;;9.30;99.90;;;;;;5030521;28;20426;-48
2023/04/11 02:40:50;;;;;;;19.57;3.50;;;9.40;99.90;;;;;;5030630;28;20034;-51
2023/04/11 02:43:15;;;;;;;18.00;3.60;;;9.40;99.90;;;;;;5030589;28;20036;-49
2023/04/11 02:45:41;;;;;;;21.43;3.73;;;9.40;99.90;;;;;;5029124;28;20478;-53
2023/04/11 02:48:08;;;;;;;20.87;4.40;;;9.40;99.90;;;;;;5029028;28;20036;-53
2023/04/11 02:50:40;;;;;;;24.10;3.60;;;9.40;99.90;;;;;;5029249;28;20103;-50
2023/04/11 02:53:06;;;;;;;20.47;3.77;;;9.50;99.90;;;;;;5029340;28;20036;-48
2023/04/11 02:55:34;;;;;;;19.00;3.57;;;9.50;99.90;;;;;;5029078;28;20034;-49
2023/04/11 02:58:00;;;;;;;17.70;3.80;;;9.40;99.90;;;;;;5030319;28;20041;-52
2023/04/11 03:00:26;;;;;;;23.37;3.60;;;9.50;99.90;;;;;;5028956;28;20037;-49
2023/04/11 03:03:01;;;;;;;20.90;4.63;;;9.50;99.90;;;;;;5032075;28;20033;-51
2023/04/11 03:05:29;;;;;;;22.92;3.92;;;9.50;99.90;;;;;;5033022;28;20117;-52
2023/04/11 03:07:56;;;;;;;20.60;3.47;;;9.50;99.90;;;;;;5032962;28;20030;-49
2023/04/11 03:10:23;;;;;;;17.93;4.13;;;9.50;99.90;;;;;;5032953;28;20552;-50
2023/04/11 03:12:49;;;;;;;19.30;4.03;;;9.50;99.90;;;;;;5032834;28;20029;-50
2023/04/11 03:15:16;;;;;;;20.50;4.23;;;9.40;99.90;;;;;;5032710;28;20095;-53
2023/04/11 03:17:42;;;;;;;22.67;3.80;;;9.40;99.90;;;;;;5032758;28;20075;-48
2023/04/11 03:20:12;;;;;;;17.15;3.88;;;9.40;99.90;;;;;;5032736;28;20033;-48
2023/04/11 03:22:43;;;;;;;21.03;4.70;;;9.40;99.90;;;;;;5032730;28;20087;-47
2023/04/11 03:25:08;;;;;;;19.43;4.70;;;9.40;99.90;;;;;;5034029;28;20338;-48
2023/04/11 03:27:35;;;;;;;24.43;5.07;;;9.40;99.90;;;;;;5032480;28;20395;-48
2023/04/11 03:30:03;;;;;;;22.13;4.63;;;9.40;99.90;;;;;;5032628;28;20120;-49
2023/04/11 03:32:38;;;;;;;22.70;4.73;;;9.30;99.90;;;;;;5032710;28;20048;-51
2023/04/11 03:35:04;;;;;;;25.07;4.83;;;9.30;99.90;;;;;;5032468;28;20486;-51
2023/04/11 03:37:30;;;;;;;23.87;4.77;;;9.40;99.90;;;;;;5032334;28;20094;-50
2023/04/11 03:39:56;;;;;;;25.30;5.20;;;9.30;99.90;;;;;;5032167;28;20569;-48
2023/04/11 03:42:22;;;;;;;21.00;4.73;;;9.30;99.90;;;;;;5032131;28;20482;-51
2023/04/11 03:44:53;;;;;;;21.10;4.83;;;9.30;99.90;;;;;;5031932;28;20044;-49
2023/04/11 03:47:19;;;;;;;21.77;4.70;;;9.40;99.90;;;;;;5031895;28;20022;-48
2023/04/11 03:49:46;;;;;;;25.50;4.87;;;9.40;99.90;;;;;;5031958;28;20120;-49
2023/04/11 03:52:16;;;;;;;30.70;5.93;;;9.40;99.90;;;;;;5032124;28;20060;-52
2023/04/11 03:54:43;;;;;;;22.10;4.57;;;9.40;99.90;;;;;;5033377;28;20043;-49
2023/04/11 03:57:10;;;;;;;27.73;4.93;;;9.40;99.90;;;;;;5015576;28;20105;-48
2023/04/11 03:59:36;;;;;;;20.83;5.07;;;9.40;99.90;;;;;;5033274;28;20045;-49
2023/04/11 04:02:06;;;;;;;23.37;5.40;;;9.30;99.90;;;;;;5032165;28;20036;-51
2023/04/11 04:04:35;;;;;;;22.77;4.77;;;9.30;99.90;;;;;;5031793;28;20486;-48
2023/04/11 04:07:16;;;;;;;23.33;5.43;;;9.30;99.90;;;;;;5031888;28;20029;-50
2023/04/11 04:09:43;;;;;;;24.60;5.70;;;9.30;99.90;;;;;;5031764;28;20087;-48
2023/04/11 04:12:09;;;;;;;19.40;5.00;;;9.20;99.90;;;;;;5033516;28;20022;-51
2023/04/11 04:14:53;;;;;;;21.30;4.97;;;9.20;99.90;;;;;;5032171;28;20107;-51
2023/04/11 04:17:19;;;;;;;22.43;5.50;;;9.20;99.90;;;;;;5031600;28;20486;-50
2023/04/11 04:19:47;;;;;;;19.60;5.37;;;9.20;99.90;;;;;;5031658;28;20482;-49
2023/04/11 04:22:16;;;;;;;27.03;4.90;;;9.10;99.90;;;;;;5031738;28;20033;-49
2023/04/11 04:24:47;;;;;;;21.77;4.40;;;9.10;99.90;;;;;;5031621;28;20033;-49
2023/04/11 04:27:19;;;;;;;27.83;5.60;;;9.10;99.90;;;;;;5031449;28;20057;-48
2023/04/11 04:29:47;;;;;;;24.53;5.37;;;9.10;99.90;;;;;;5015181;28;20034;-50
2023/04/11 04:32:21;;;;;;;20.83;4.67;;;9.10;99.90;;;;;;5031590;28;20032;-48
2023/04/11 04:34:53;;;;;;;25.50;5.23;;;9.10;99.90;;;;;;5031365;28;20397;-49
2023/04/11 04:37:38;;;;;;;25.17;5.50;;;9.00;99.90;;;;;;5031312;28;20026;-50
2023/04/11 04:40:14;;;;;;;22.23;4.10;;;9.00;99.90;;;;;;5031208;28;20056;-48
2023/04/11 04:42:56;;;;;;;24.10;4.73;;;9.00;99.90;;;;;;5031127;28;20032;-50
2023/04/11 04:45:24;;;;;;;27.53;5.17;;;8.90;99.90;;;;;;5031053;28;20029;-50
2023/04/11 04:47:49;;;;;;;20.70;4.70;;;9.00;99.90;;;;;;5032299;28;20030;-49
2023/04/11 04:50:15;;;;;;;19.50;4.10;;;8.90;99.90;;;;;;5031056;28;20037;-50
2023/04/11 04:52:41;;;;;;;19.47;3.80;;;8.90;99.90;;;;;;5032255;28;20039;-50
2023/04/11 04:55:07;;;;;;;19.83;4.10;;;8.90;99.90;;;;;;5030953;28;20025;-52
2023/04/11 04:57:33;;;;;;;24.83;3.97;;;8.80;99.90;;;;;;5030695;28;20486;-51
2023/04/11 05:00:00;;;;;;;18.70;3.87;;;8.80;99.90;;;;;;5030803;28;20105;-49
2023/04/11 05:02:26;;;;;;;22.17;4.10;;;8.80;99.90;;;;;;5030641;28;20056;-49
2023/04/11 05:04:54;;;;;;;21.00;3.83;;;8.90;99.90;;;;;;5030545;28;20045;-49
2023/04/11 05:07:21;;;;;;;19.40;3.67;;;8.90;99.90;;;;;;5030378;28;20021;-50
2023/04/11 05:09:50;;;;;;;22.33;4.22;;;8.80;99.90;;;;;;5030530;28;20021;-48
2023/04/11 05:12:25;;;;;;;19.43;4.03;;;8.80;99.90;;;;;;5030619;28;20035;-50
2023/04/11 05:14:54;;;;;;;17.50;4.20;;;8.80;99.90;;;;;;5030375;28;20116;-48
2023/04/11 05:17:20;;;;;;;16.33;3.43;;;8.80;99.90;;;;;;5030410;28;20029;-48
2023/04/11 05:19:46;;;;;;;22.07;3.93;;;8.70;99.90;;;;;;5030184;28;20055;-49
2023/04/11 05:22:11;;;;;;;18.70;4.60;;;8.80;99.90;;;;;;5030323;28;20374;-47
2023/04/11 05:24:43;;;;;;;19.70;3.83;;;8.90;99.90;;;;;;5029508;28;20080;-48
2023/04/11 05:27:12;;;;;;;17.00;3.93;;;8.90;99.90;;;;;;5029451;28;20455;-49
2023/04/11 05:29:38;;;;;;;17.13;3.93;;;8.80;99.90;;;;;;5030155;28;20489;-47
2023/04/11 05:32:04;;;;;;;18.13;3.60;;;8.80;99.90;;;;;;5030206;28;20557;-47
2023/04/11 05:34:32;;;;;;;15.33;3.70;;;8.90;99.90;;;;;;5029911;28;20029;-47
2023/04/11 05:36:57;;;;;;;20.27;3.60;;;9.00;99.90;;;;;;5031256;28;20033;-51
2023/04/11 05:39:23;;;;;;;17.97;3.77;;;9.00;99.90;;;;;;5030055;28;20079;-49
2023/04/11 05:41:49;;;;;;;17.40;3.80;;;9.10;99.90;;;;;;5029910;28;20516;-50
2023/04/11 05:44:15;;;;;;;21.33;4.30;;;9.20;99.90;;;;;;5029673;28;20374;-50
2023/04/11 05:46:41;;;;;;;21.23;4.77;;;9.10;99.90;;;;;;5029667;28;20025;-48
2023/04/11 05:49:07;;;;;;;19.50;4.13;;;9.10;99.90;;;;;;5029709;28;20086;-49
2023/04/11 05:51:33;;;;;;;19.87;4.07;;;9.00;99.90;;;;;;5030911;28;20044;-50
2023/04/11 05:53:59;;;;;;;16.77;4.10;;;8.90;99.90;;;;;;5030831;28;20026;-51
2023/04/11 05:56:24;;;;;;;26.03;4.77;;;8.90;99.90;;;;;;5030669;28;20029;-49
2023/04/11 05:58:51;;;;;;;22.00;4.97;;;8.80;99.90;;;;;;5030750;28;20087;-52
2023/04/11 06:01:19;;;;;;;23.57;4.87;;;8.90;99.90;;;;;;5030641;28;20080;-48
2023/04/11 06:03:46;;;;;;;15.88;4.90;;;8.90;99.90;;;;;;5030328;28;20069;-50
2023/04/11 06:06:11;;;;;;;18.87;3.57;;;9.00;99.90;;;;;;5030683;28;20489;-48
2023/04/11 06:08:37;;;;;;;19.10;3.57;;;9.00;99.90;;;;;;5030352;28;20045;-50
2023/04/11 06:11:03;;;;;;;16.90;3.80;;;9.10;99.90;;;;;;5030261;28;20021;-47
2023/04/11 06:13:29;;;;;;;19.47;3.87;;;9.10;99.90;;;;;;5030238;28;20068;-50
2023/04/11 06:15:55;;;;;;;18.50;3.33;;;9.20;99.90;;;;;;5030394;28;20443;-49
2023/04/11 06:18:20;;;;;;;20.13;3.60;;;9.20;99.90;;;;;;5030189;28;20048;-48
2023/04/11 06:20:47;;;;;;;15.77;4.03;;;9.20;99.90;;;;;;5030214;28;20033;-47
2023/04/11 06:23:13;;;;;;;21.30;3.93;;;9.30;99.90;;;;;;5030353;28;20449;-47
2023/04/11 06:25:39;;;;;;;14.97;3.30;;;9.30;99.90;;;;;;5030173;28;20021;-49
2023/04/11 06:28:04;;;;;;;11.20;2.93;;;9.30;99.90;;;;;;5030576;28;20399;-53
2023/04/11 06:30:30;;;;;;;16.63;3.30;;;9.40;99.90;;;;;;5030595;28;20438;-49
2023/04/11 06:32:56;;;;;;;13.67;3.40;;;9.30;99.90;;;;;;5030183;28;20048;-49
2023/04/11 06:35:23;;;;;;;20.57;3.93;;;9.40;99.90;;;;;;5030036;28;20025;-50
2023/04/11 06:37:51;;;;;;;12.93;2.93;;;9.40;99.90;;;;;;5029652;28;20405;-49
2023/04/11 06:40:20;;;;;;;10.47;2.33;;;9.40;99.90;;;;;;5030166;28;20498;-51
2023/04/11 06:42:46;;;;;;;17.50;3.58;;;9.50;99.90;;;;;;5030177;28;20036;-49
2023/04/11 06:45:12;;;;;;;16.00;4.23;;;9.50;99.90;;;;;;5029924;28;20117;-48
2023/04/11 06:47:39;;;;;;;14.73;2.63;;;9.60;99.90;;;;;;5029955;28;20510;-48
2023/04/11 06:50:05;;;;;;;10.83;3.00;;;9.70;99.90;;;;;;5029894;28;20487;-49
2023/04/11 06:52:31;;;;;;;21.17;3.40;;;9.70;99.90;;;;;;5030043;28;20470;-49
2023/04/11 06:54:56;;;;;;;15.73;2.90;;;9.70;99.90;;;;;;5030046;28;20037;-48
2023/04/11 06:57:22;;;;;;;20.90;3.00;;;9.70;99.90;;;;;;5029884;28;20037;-48
2023/04/11 06:59:48;;;;;;;16.20;2.67;;;9.70;99.90;;;;;;5029871;28;20084;-48
2023/04/11 07:02:14;;;;;;;15.23;2.90;;;9.70;99.90;;;;;;5030192;28;20045;-48
2023/04/11 07:04:40;;;;;;;13.90;2.90;;;9.70;99.90;;;;;;5030235;28;20057;-48
2023/04/11 07:07:06;;;;;;;16.63;3.13;;;9.70;99.90;;;;;;5029907;28;20025;-49
2023/04/11 07:09:32;;;;;;;19.83;3.80;;;9.70;99.90;;;;;;5030002;28;20080;-51
2023/04/11 07:11:58;;;;;;;14.10;3.17;;;10.00;99.90;;;;;;5029947;28;20503;-48
2023/04/11 07:14:23;;;;;;;17.30;3.27;;;9.90;99.90;;;;;;5029657;28;20057;-50
2023/04/11 07:16:49;;;;;;;15.97;2.93;;;9.80;99.90;;;;;;5028480;28;20037;-47
2023/04/11 07:19:15;;;;;;;16.30;2.97;;;9.90;99.90;;;;;;5029918;28;20029;-50
2023/04/11 07:21:41;;;;;;;14.27;3.23;;;10.00;99.90;;;;;;5067589;22;20420;-49
2023/04/11 07:24:09;;;;;;;16.77;3.23;;;10.20;99.90;;;;;;5069364;28;20028;-49
2023/04/11 07:26:37;;;;;;;14.43;3.23;;;10.20;99.90;;;;;;5069680;28;20079;-48
2023/04/11 07:29:03;;;;;;;15.17;3.13;;;10.20;99.90;;;;;;5069729;28;20479;-51
2023/04/11 07:31:29;;;;;;;15.13;2.97;;;10.20;99.90;;;;;;5069885;28;20111;-47
2023/04/11 07:33:55;;;;;;;10.93;2.83;;;10.30;99.90;;;;;;5069678;28;20052;-51
2023/04/11 07:36:21;;;;;;;17.47;3.30;;;10.30;99.90;;;;;;5069617;28;20045;-48
2023/04/11 07:38:46;;;;;;;17.57;4.10;;;10.20;99.90;;;;;;5069811;28;20040;-48
2023/04/11 07:41:12;;;;;;;20.57;3.50;;;10.30;99.90;;;;;;5070347;28;20028;-49
2023/04/11 07:43:38;;;;;;;12.53;2.57;;;10.50;99.90;;;;;;5070064;28;20066;-50
2023/04/11 07:46:04;;;;;;;15.57;2.53;;;10.80;99.90;;;;;;5070356;28;20102;-48
2023/04/11 07:48:30;;;;;;;15.47;3.07;;;10.80;99.90;;;;;;5070012;28;20025;-50
2023/04/11 07:50:56;;;;;;;10.50;2.13;;;11.10;99.90;;;;;;5073294;28;20078;-50
2023/04/11 07:53:22;;;;;;;15.83;2.50;;;11.60;99.90;;;;;;5071960;28;20032;-49
2023/04/11 07:55:48;;;;;;;14.40;3.23;;;12.00;99.90;;;;;;5073270;28;20142;-48
2023/04/11 07:58:14;;;;;;;19.47;2.77;;;12.10;99.90;;;;;;5072981;28;20119;-50
2023/04/11 08:00:39;;;;;;;15.73;2.53;;;12.20;99.90;;;;;;5073393;28;20028;-49
2023/04/11 08:03:07;;;;;;;13.03;2.30;;;12.10;99.90;;;;;;5073098;28;20499;-48
2023/04/11 08:05:34;;;;;;;13.73;2.37;;;12.10;99.90;;;;;;5073140;28;20540;-49
2023/04/11 08:08:01;;;;;;;15.10;3.20;;;12.20;99.90;;;;;;5072854;28;20098;-51
2023/04/11 08:10:27;;;;;;;13.20;2.78;;;12.30;99.90;;;;;;5072854;28;20033;-49
2023/04/11 08:12:53;;;;;;;13.38;2.50;;;12.40;99.90;;;;;;5072891;28;20481;-48
2023/04/11 08:15:19;;;;;;;13.52;2.33;;;12.30;99.90;;;;;;5073080;28;20110;-48
2023/04/11 08:17:48;;;;;;;13.52;2.30;;;12.40;99.90;;;;;;5072748;28;20123;-50
2023/04/11 08:20:15;;;;;;;10.52;2.10;;;12.20;99.90;;;;;;5072728;28;20033;-47
2023/04/11 08:22:45;;;;;;;16.83;2.78;;;12.20;99.90;;;;;;5072796;28;20041;-54
2023/04/11 08:25:12;;;;;;;12.43;2.80;;;12.40;99.90;;;;;;5072373;28;20248;-50
2023/04/11 08:27:38;;;;;;;13.53;3.03;;;12.30;99.90;;;;;;5071310;28;20073;-53
2023/04/11 08:30:07;;;;;;;11.97;2.50;;;12.20;99.90;;;;;;5071257;28;20071;-55
2023/04/11 08:32:33;;;;;;;8.87;2.60;;;12.00;99.90;;;;;;5072662;28;20076;-49
2023/04/11 08:34:59;;;;;;;10.33;2.50;;;11.70;99.90;;;;;;5072430;28;20020;-53
2023/04/11 08:37:26;;;;;;;10.27;2.77;;;11.50;99.90;;;;;;5072199;28;20085;-50
2023/04/11 08:39:52;;;;;;;13.10;2.63;;;11.40;99.90;;;;;;5072262;28;20036;-50
2023/04/11 08:42:28;;;;;;;11.70;2.43;;;11.60;99.90;;;;;;5072179;28;20024;-52
2023/04/11 08:44:58;;;;;;;12.40;3.03;;;11.80;99.90;;;;;;5072302;28;20400;-50
2023/04/11 08:47:25;;;;;;;11.10;2.40;;;12.00;99.90;;;;;;5072108;28;20040;-48
2023/04/11 08:49:51;;;;;;;12.27;2.67;;;12.20;99.90;;;;;;5072042;28;20020;-47
2023/04/11 08:52:20;;;;;;;12.60;2.10;;;12.60;99.90;;;;;;5071811;28;20126;-49
2023/04/11 08:54:47;;;;;;;10.93;2.72;;;12.80;99.90;;;;;;5071844;28;20028;-49
2023/04/11 08:57:25;;;;;;;10.48;1.98;;;12.80;99.90;;;;;;5071942;28;20040;-49
2023/04/11 08:59:52;;;;;;;10.77;2.17;;;12.70;99.90;;;;;;5071536;28;20631;-51
2023/04/11 09:02:18;;;;;;;9.43;2.07;;;12.30;99.90;;;;;;5071699;28;20040;-49
2023/04/11 09:04:46;;;;;;;11.87;2.13;;;12.40;99.90;;;;;;5071318;28;20036;-49
2023/04/11 09:07:15;;;;;;;10.88;2.00;;;12.50;99.90;;;;;;5071516;28;20025;-50
2023/04/11 09:09:42;;;;;;;9.50;2.20;;;12.60;99.90;;;;;;5071659;28;20025;-49
2023/04/11 09:12:08;;;;;;;13.38;2.63;;;12.60;99.90;;;;;;5071463;28;20024;-50
2023/04/11 09:14:34;;;;;;;7.53;2.00;;;12.60;99.90;;;;;;5071817;28;20029;-47
2023/04/11 09:17:03;;;;;;;8.00;2.00;;;12.70;99.90;;;;;;5071338;28;20032;-49
2023/04/11 09:19:33;;;;;;;12.77;2.17;;;12.90;99.90;;;;;;5071320;28;20513;-50
2023/04/11 09:22:04;;;;;;;11.60;2.10;;;12.80;99.90;;;;;;5071226;28;20036;-48
2023/04/11 09:24:30;;;;;;;9.17;2.13;;;12.90;99.90;;;;;;5071346;28;20040;-48
2023/04/11 09:27:08;;;;;;;10.23;2.30;;;12.80;99.90;;;;;;5071183;28;20020;-48
2023/04/11 09:29:37;;;;;;;12.27;2.30;;;12.70;99.90;;;;;;5071214;28;20036;-50
2023/04/11 09:32:02;;;;;;;12.82;2.70;;;12.50;99.90;;;;;;5071181;28;20028;-51
2023/04/11 09:34:28;;;;;;;8.90;2.20;;;12.60;99.90;;;;;;5071195;28;20037;-48
2023/04/11 09:36:55;;;;;;;7.10;2.03;;;12.60;99.90;;;;;;5070941;28;20040;-50
2023/04/11 09:39:21;;;;;;;9.50;1.80;;;12.60;99.90;;;;;;5071122;28;20035;-51
2023/04/11 09:41:47;;;;;;;8.57;2.47;;;13.10;99.70;;;;;;5071145;28;20028;-49
2023/04/11 09:44:12;;;;;;;5.53;2.03;;;13.70;97.00;;;;;;5070737;28;20090;-47
2023/04/11 09:46:59;;;;;;;7.15;1.80;;;14.20;96.00;;;;;;5070789;28;20119;-48
2023/04/11 09:49:25;;;;;;;10.32;2.08;;;14.60;93.50;;;;;;5069823;28;20108;-51
2023/04/11 09:51:51;;;;;;;8.30;1.88;;;14.80;93.50;;;;;;5070888;28;20031;-49
2023/04/11 09:54:21;;;;;;;8.13;2.30;;;15.20;92.20;;;;;;5069413;28;20124;-48
2023/04/11 09:56:47;;;;;;;10.32;2.35;;;15.60;91.50;;;;;;5070566;28;20039;-48
2023/04/11 09:59:15;;;;;;;7.85;1.83;;;15.60;88.80;;;;;;5071020;28;20400;-49
2023/04/11 10:01:41;;;;;;;8.02;2.30;;;15.30;89.50;;;;;;5070798;28;20036;-49
2023/04/11 10:04:09;;;;;;;6.03;1.92;;;14.90;88.70;;;;;;5070584;28;20033;-52
2023/04/11 10:07:00;;;;;;;5.93;2.10;;;14.60;89.50;;;;;;5070586;28;20035;-51
2023/04/11 10:09:28;;;;;;;6.82;2.10;;;14.80;90.80;;;;;;5070765;28;20423;-52
2023/04/11 10:11:54;;;;;;;9.18;2.03;;;15.00;90.70;;;;;;5068845;28;20115;-50
2023/04/11 10:14:49;;;;;;;9.88;2.30;;;15.40;90.60;;;;;;5070655;28;20032;-47
2023/04/11 10:17:20;;;;;;;9.23;2.30;;;15.60;92.30;;;;;;5061141;28;20421;-51
2023/04/11 10:19:47;;;;;;;10.57;2.30;;;16.50;87.70;;;;;;5070518;28;20234;-51
2023/04/11 10:22:41;;;;;;;7.97;2.75;;;16.80;87.20;;;;;;5070383;28;20036;-52
2023/04/11 10:25:23;;;;;;;7.82;2.22;;;17.20;84.40;;;;;;5070398;28;20025;-49
2023/04/11 10:27:59;;;;;;;13.00;2.45;;;17.60;82.10;;;;;;5070383;28;20392;-52
2023/04/11 10:30:39;;;;;;;9.55;2.10;;;17.60;79.00;;;;;;5070290;28;20077;-53
2023/04/11 10:33:14;;;;;;;8.75;2.40;;;17.60;81.00;;;;;;5070527;28;20059;-52
2023/04/11 10:36:08;;;;;;;6.82;1.90;;;17.40;77.80;;;;;;5070348;28;20082;-47
2023/04/11 10:38:43;;;;;;;8.82;2.08;;;17.50;76.90;;;;;;5070081;28;20475;-50
2023/04/11 10:41:15;;;;;;;8.20;1.80;;;17.20;77.50;;;;;;5070318;28;20035;-50
2023/04/11 10:43:41;;;;;;;7.72;1.92;;;17.10;77.10;;;;;;5070111;28;20117;-49
2023/04/11 10:46:23;;;;;;;8.30;2.25;;;17.40;76.20;;;;;;5070412;28;20447;-49
2023/04/11 10:48:59;;;;;;;6.95;1.83;;;17.40;76.50;;;;;;5070268;28;20033;-48
2023/04/11 10:51:26;;;;;;;7.45;2.45;;;17.90;77.00;;;;;;5070450;28;20032;-47
2023/04/11 10:53:54;;;;;;;8.70;2.30;;;17.70;73.70;;;;;;5070137;28;20033;-50
2023/04/11 10:56:53;;;;;;;8.70;1.95;;;17.40;74.70;;;;;;5070044;28;20086;-50
2023/04/11 10:59:30;;;;;;;10.60;2.17;;;16.90;77.30;;;;;;5047101;28;20511;-49
2023/04/11 11:01:58;;;;;;;6.13;1.80;;;16.70;74.10;;;;;;5070085;28;20102;-48
2023/04/11 11:04:50;;;;;;;8.75;2.33;;;16.50;75.60;;;;;;5069924;28;20043;-48
2023/04/11 11:07:16;;;;;;;7.93;1.80;;;16.40;75.80;;;;;;5067967;28;20043;-49
2023/04/11 11:09:47;;;;;;;7.57;2.28;;;16.40;75.60;;;;;;5069972;28;20481;-48
2023/04/11 11:12:14;;;;;;;10.02;2.60;;;16.30;76.90;;;;;;5070013;28;20032;-51
2023/04/11 11:14:42;;;;;;;9.50;2.35;;;15.60;77.30;;;;;;5069977;28;20051;-49
2023/04/11 11:17:09;;;;;;;7.40;2.00;;;15.10;80.80;;;;;;5069979;28;20033;-47
2023/04/11 11:19:35;;;;;;;8.65;2.40;;;14.80;82.50;;;;;;5069889;28;20082;-52
2023/04/11 11:22:05;;;;;;;10.68;2.63;;;14.50;86.60;;;;;;5069629;28;20041;-51
2023/04/11 11:24:31;;;;;;;8.68;2.58;;;14.20;91.40;;;;;;5073308;28;20541;-47
2023/04/11 11:26:57;;;;;;;7.68;2.50;;;14.10;93.80;;;;;;5073710;28;20024;-49
2023/04/11 11:29:39;;;;;;;11.23;2.33;;;14.40;94.40;;;;;;5073571;28;20074;-48
2023/04/11 11:32:05;;;;;;;8.82;2.20;;;14.90;92.60;;;;;;5073572;28;20389;-48
2023/04/11 11:34:33;;;;;;;11.13;3.08;;;14.90;90.10;;;;;;5073421;28;20029;-48
2023/04/11 11:37:00;;;;;;;6.80;2.00;;;15.20;90.90;;;;;;5073304;28;20033;-50
2023/04/11 11:39:29;;;;;;;9.50;2.25;;;15.10;90.40;;;;;;5073383;28;20435;-49
2023/04/11 11:41:55;;;;;;;6.65;1.77;;;15.60;85.30;;;;;;5073581;28;20076;-48
2023/04/11 11:44:29;;;;;;;6.57;1.83;;;16.00;82.80;;;;;;5073430;28;20025;-50
2023/04/11 11:47:08;;;;;;;8.45;2.00;;;16.20;77.70;;;;;;5073246;28;20020;-53
2023/04/11 11:49:47;;;;;;;;;;;15.90;77.00;;;;;;5073869;28;20645;-51
2023/04/11 11:52:30;;;;;;;8.00;1.95;;;15.90;76.60;;;;;;5073454;28;20284;-46
2023/04/11 11:54:56;;;;;;;10.32;2.15;;;16.20;80.30;;;;;;5073050;28;20082;-47
2023/04/11 11:57:21;;;;;;;4.82;1.60;;;16.30;75.10;;;;;;5072865;28;20029;-50
2023/04/11 11:59:55;;;;;;;5.15;1.45;;;16.40;74.00;;;;;;5072908;28;20485;-47
2023/04/11 12:02:27;;;;;;;7.75;1.60;;;16.40;74.00;;;;;;5072996;28;20444;-48
2023/04/11 12:04:58;;;;;;;6.38;1.50;;;16.50;72.80;;;;;;5072865;28;20373;-51
2023/04/11 12:07:24;;;;;;;7.25;1.42;;;16.20;71.40;;;;;;5071583;28;20028;-46
2023/04/11 12:10:13;;;;;;;5.85;1.33;;;15.90;71.10;;;;;;5072903;28;20465;-47
2023/04/11 12:12:40;;;;;;;7.05;1.30;;;15.90;68.30;;;;;;5066327;28;20040;-47
2023/04/11 12:15:10;;;;;;;4.43;1.67;;;15.90;69.70;;;;;;5072663;28;20033;-49
2023/04/11 12:17:36;;;;;;;7.70;1.60;;;15.90;69.50;;;;;;5072518;28;20111;-48
2023/04/11 12:20:09;;;;;;;4.57;0.98;;;15.90;71.80;;;;;;5072628;28;20074;-50
2023/04/11 12:22:38;;;;;;;6.53;1.35;;;15.70;69.70;;;;;;5073064;28;20037;-49
2023/04/11 12:25:06;;;;;;;7.45;1.55;;;15.40;72.70;;;;;;5072736;28;20029;-48
2023/04/11 12:27:35;;;;;;;4.78;1.30;;;15.50;72.40;;;;;;5072566;28;20370;-47
2023/04/11 12:30:01;;;;;;;9.88;1.60;;;15.50;73.10;;;;;;5072547;28;20442;-51
2023/04/11 12:32:27;;;;;;;7.65;1.65;;;15.40;73.20;;;;;;5072397;28;20131;-47
2023/04/11 12:34:53;;;;;;;9.13;1.70;;;15.30;70.50;;;;;;5071624;28;20536;-48
2023/04/11 12:37:19;;;;;;;6.90;1.60;;;15.10;69.60;;;;;;5072118;28;20393;-47
2023/04/11 12:39:45;;;;;;;8.27;1.40;;;15.00;71.10;;;;;;5072505;28;20175;-48
2023/04/11 12:42:11;;;;;;;8.30;1.52;;;14.90;66.80;;;;;;5072391;28;20579;-50
2023/04/11 12:44:37;;;;;;;3.35;0.98;;;15.10;68.00;;;;;;5071923;28;20029;-48
2023/04/11 12:47:03;;;;;;;5.57;1.15;;;15.30;66.90;;;;;;5072073;28;20067;-47
2023/04/11 12:49:28;;;;;;;9.73;2.22;;;15.50;66.40;;;;;;5072125;28;20447;-49
2023/04/11 12:51:54;;;;;;;4.90;1.27;;;15.20;67.30;;;;;;5071952;28;20473;-48